Search for airport 
image banner adimage banner adimage banner ad
image banner ad

41PA - Deitch

Located in New Kingstown, United States

ICAO - 41PA, IATA -

Data provided by Airmate  

General information

Coordinates: N40°15'28" W77°4'53"
Elevation is 420 feet MSL.
Magnetic variation is -10° East
View others Airports in Pennsylvania

Operational data

Special qualification required
Current time UTC:
Current local time:
Weather at : KCXY - Capital City ( 20 km )
METAR: KCXY 091556Z 17008KT 8SM -RA SCT029 BKN033 OVC046 10/04 A3008 RMK AO2 RAB06 SLP187 P0002 T01000039 $
View NOTAMs / SUP AIP / TFR affecting this airport [VIEW]
Communications frequencies: [VIEW]

Runways:

RWY identifierQFULength (ft)Width (ft)SurfaceLDA (ft)
081200100GRASS
261200100GRASS
161276100GRASS
341276100GRASS

Airport contact information

Address: New Kingstown United States

Satellite view of 41PA